sensor_id;sensor_type;location;lat;lon;timestamp;pressure;altitude;pressure_sealevel;temperature;humidity
18765;BME280;9511;54.242;12.448;2023-01-28T04:05:03;102729.69;;;-0.08;85.36
18765;BME280;9511;54.242;12.448;2023-01-28T04:07:33;102720.84;;;-0.10;85.71
18765;BME280;9511;54.242;12.448;2023-01-28T04:10:13;102726.03;;;-0.10;86.43
18765;BME280;9511;54.242;12.448;2023-01-28T04:12:47;102728.47;;;-0.12;86.51
18765;BME280;9511;54.242;12.448;2023-01-28T04:15:18;102735.03;;;-0.07;87.09
18765;BME280;9511;54.242;12.448;2023-01-28T04:17:47;102727.41;;;-0.05;86.92
18765;BME280;9511;54.242;12.448;2023-01-28T04:20:23;102723.41;;;-0.02;87.23
18765;BME280;9511;54.242;12.448;2023-01-28T04:22:50;102723.91;;;-0.06;86.14
18765;BME280;9511;54.242;12.448;2023-01-28T04:25:19;102718.69;;;-0.06;86.04
18765;BME280;9511;54.242;12.448;2023-01-28T04:27:47;102715.94;;;-0.07;85.83
18765;BME280;9511;54.242;12.448;2023-01-28T04:30:20;102713.31;;;-0.07;86.41
18765;BME280;9511;54.242;12.448;2023-01-28T04:33:06;102712.25;;;-0.09;86.47
18765;BME280;9511;54.242;12.448;2023-01-28T04:35:58;102713.16;;;-0.17;86.60
18765;BME280;9511;54.242;12.448;2023-01-28T04:38:41;102707.22;;;-0.25;86.20
18765;BME280;9511;54.242;12.448;2023-01-28T04:41:48;102704.63;;;-0.25;87.11
18765;BME280;9511;54.242;12.448;2023-01-28T04:44:35;102701.41;;;-0.31;87.05
18765;BME280;9511;54.242;12.448;2023-01-28T04:47:15;102703.88;;;-0.33;87.13
18765;BME280;9511;54.242;12.448;2023-01-28T04:49:55;102704.19;;;-0.38;87.31
18765;BME280;9511;54.242;12.448;2023-01-28T04:52:34;102704.78;;;-0.41;87.73
18765;BME280;9511;54.242;12.448;2023-01-28T04:55:14;102703.41;;;-0.46;88.08
18765;BME280;9511;54.242;12.448;2023-01-28T04:57:42;102700.66;;;-0.47;88.47
18765;BME280;9511;54.242;12.448;2023-01-28T05:00:10;102705.69;;;-0.49;87.64
18765;BME280;9511;54.242;12.448;2023-01-28T05:02:37;102704.31;;;-0.54;88.03
18765;BME280;9511;54.242;12.448;2023-01-28T05:05:05;102698.53;;;-0.51;88.74
18765;BME280;9511;54.242;12.448;2023-01-28T05:07:57;102704.47;;;-0.52;88.48
18765;BME280;9511;54.242;12.448;2023-01-28T05:10:25;102700.94;;;-0.53;88.27
18765;BME280;9511;54.242;12.448;2023-01-28T05:12:53;102710.13;;;-0.48;88.36
18765;BME280;9511;54.242;12.448;2023-01-28T05:15:21;102706.03;;;-0.46;88.82
18765;BME280;9511;54.242;12.448;2023-01-28T05:17:53;102713.19;;;-0.43;88.75
18765;BME280;9511;54.242;12.448;2023-01-28T05:20:22;102711.97;;;-0.47;88.29
18765;BME280;9511;54.242;12.448;2023-01-28T05:22:50;102709.34;;;-0.47;88.84
18765;BME280;9511;54.242;12.448;2023-01-28T05:25:21;102720.06;;;-0.44;89.11
18765;BME280;9511;54.242;12.448;2023-01-28T05:27:49;102707.06;;;-0.44;89.52
18765;BME280;9511;54.242;12.448;2023-01-28T05:30:17;102714.09;;;-0.43;89.45
18765;BME280;9511;54.242;12.448;2023-01-28T05:32:45;102709.22;;;-0.40;89.63
18765;BME280;9511;54.242;12.448;2023-01-28T05:35:15;102700.66;;;-0.39;89.73
18765;BME280;9511;54.242;12.448;2023-01-28T05:37:43;102693.00;;;-0.37;89.65
18765;BME280;9511;54.242;12.448;2023-01-28T05:40:11;102690.25;;;-0.39;89.95
18765;BME280;9511;54.242;12.448;2023-01-28T05:42:40;102687.34;;;-0.33;89.91
18765;BME280;9511;54.242;12.448;2023-01-28T05:45:20;102686.59;;;-0.32;89.77
18765;BME280;9511;54.242;12.448;2023-01-28T05:48:20;102685.94;;;-0.30;89.62
18765;BME280;9511;54.242;12.448;2023-01-28T05:51:05;102686.88;;;-0.29;89.25
18765;BME280;9511;54.242;12.448;2023-01-28T05:53:38;102672.94;;;-0.30;88.64
18765;BME280;9511;54.242;12.448;2023-01-28T05:56:06;102675.09;;;-0.25;88.13
18765;BME280;9511;54.242;12.448;2023-01-28T05:58:38;102676.16;;;-0.23;87.49
18765;BME280;9511;54.242;12.448;2023-01-28T06:01:05;102669.72;;;-0.18;86.51
18765;BME280;9511;54.242;12.448;2023-01-28T06:03:40;102675.25;;;-0.15;86.34
18765;BME280;9511;54.242;12.448;2023-01-28T06:06:07;102673.72;;;-0.13;85.86
18765;BME280;9511;54.242;12.448;2023-01-28T06:08:34;102673.72;;;-0.13;85.53
18765;BME280;9511;54.242;12.448;2023-01-28T06:11:03;102675.25;;;-0.15;85.02
18765;BME280;9511;54.242;12.448;2023-01-28T06:13:33;102675.53;;;-0.12;85.32
18765;BME280;9511;54.242;12.448;2023-01-28T06:16:24;102676.75;;;-0.09;84.71
18765;BME280;9511;54.242;12.448;2023-01-28T06:19:10;102669.72;;;-0.10;84.42
18765;BME280;9511;54.242;12.448;2023-01-28T06:21:37;102675.84;;;-0.09;84.78
18765;BME280;9511;54.242;12.448;2023-01-28T06:24:05;102674.94;;;-0.10;84.75
18765;BME280;9511;54.242;12.448;2023-01-28T06:26:32;102675.84;;;-0.09;84.95
18765;BME280;9511;54.242;12.448;2023-01-28T06:28:59;102672.34;;;-0.10;84.32
18765;BME280;9511;54.242;12.448;2023-01-28T06:31:28;102672.63;;;-0.07;84.90
18765;BME280;9511;54.242;12.448;2023-01-28T06:33:55;102669.41;;;-0.13;84.67
18765;BME280;9511;54.242;12.448;2023-01-28T06:36:22;102668.50;;;-0.13;84.67
18765;BME280;9511;54.242;12.448;2023-01-28T06:38:49;102666.06;;;-0.20;84.77
18765;BME280;9511;54.242;12.448;2023-01-28T06:41:17;102666.81;;;-0.13;84.77
18765;BME280;9511;54.242;12.448;2023-01-28T06:43:44;102674.91;;;-0.01;85.17
18765;BME280;9511;54.242;12.448;2023-01-28T06:46:11;102667.41;;;0.02;84.79
18765;BME280;9511;54.242;12.448;2023-01-28T06:48:40;102669.06;;;0.10;84.72
18765;BME280;9511;54.242;12.448;2023-01-28T06:51:07;102680.56;;;0.04;84.56
18765;BME280;9511;54.242;12.448;2023-01-28T06:53:34;102682.25;;;0.03;84.68
18765;BME280;9511;54.242;12.448;2023-01-28T06:56:01;102679.97;;;0.06;84.46
18765;BME280;9511;54.242;12.448;2023-01-28T06:58:28;102678.59;;;0.01;84.49
18765;BME280;9511;54.242;12.448;2023-01-28T07:00:56;102686.69;;;0.04;84.45
18765;BME280;9511;54.242;12.448;2023-01-28T07:03:23;102694.16;;;0.10;85.10
18765;BME280;9511;54.242;12.448;2023-01-28T07:05:52;102700.28;;;0.10;84.54
18765;BME280;9511;54.242;12.448;2023-01-28T07:08:19;102702.28;;;0.13;84.98
18765;BME280;9511;54.242;12.448;2023-01-28T07:10:46;102700.88;;;0.16;84.50
18765;BME280;9511;54.242;12.448;2023-01-28T07:13:14;102693.84;;;0.15;84.60
18765;BME280;9511;54.242;12.448;2023-01-28T07:15:41;102697.53;;;0.09;84.33
18765;BME280;9511;54.242;12.448;2023-01-28T07:18:08;102700.59;;;0.13;84.38
18765;BME280;9511;54.242;12.448;2023-01-28T07:20:36;102707.03;;;0.08;84.41
18765;BME280;9511;54.242;12.448;2023-01-28T07:23:04;102711.31;;;0.08;84.26
18765;BME280;9511;54.242;12.448;2023-01-28T07:25:32;102711.31;;;0.08;84.29
18765;BME280;9511;54.242;12.448;2023-01-28T07:27:59;102719.41;;;0.11;84.72
18765;BME280;9511;54.242;12.448;2023-01-28T07:30:26;102711.59;;;0.11;84.64
18765;BME280;9511;54.242;12.448;2023-01-28T07:32:54;102719.28;;;0.09;84.95
18765;BME280;9511;54.242;12.448;2023-01-28T07:35:22;102704.28;;;-0.02;84.66
18765;BME280;9511;54.242;12.448;2023-01-28T07:37:51;102719.00;;;-0.03;84.74
18765;BME280;9511;54.242;12.448;2023-01-28T07:40:20;102713.78;;;-0.03;85.62
18765;BME280;9511;54.242;12.448;2023-01-28T07:42:48;102709.53;;;-0.11;85.62
18765;BME280;9511;54.242;12.448;2023-01-28T07:45:16;102705.84;;;-0.13;85.63
18765;BME280;9511;54.242;12.448;2023-01-28T07:47:44;102719.63;;;-0.05;85.95
18765;BME280;9511;54.242;12.448;2023-01-28T07:50:11;102717.63;;;0.01;86.00
18765;BME280;9511;54.242;12.448;2023-01-28T07:52:53;102719.13;;;-0.01;85.59
18765;BME280;9511;54.242;12.448;2023-01-28T07:55:30;102719.00;;;0.06;86.06
18765;BME280;9511;54.242;12.448;2023-01-28T07:58:27;102728.13;;;0.11;86.04
18765;BME280;9511;54.242;12.448;2023-01-28T08:01:21;102720.00;;;0.17;86.26
18765;BME280;9511;54.242;12.448;2023-01-28T08:03:48;102724.44;;;0.26;86.17
18765;BME280;9511;54.242;12.448;2023-01-28T08:06:15;102716.50;;;0.25;86.40
18765;BME280;9511;54.242;12.448;2023-01-28T08:08:43;102725.81;;;0.32;86.68
18765;BME280;9511;54.242;12.448;2023-01-28T08:11:11;102725.63;;;0.39;86.86
18765;BME280;9511;54.242;12.448;2023-01-28T08:13:38;102726.88;;;0.42;86.83
18765;BME280;9511;54.242;12.448;2023-01-28T08:16:06;102726.09;;;0.43;86.62
18765;BME280;9511;54.242;12.448;2023-01-28T08:18:33;102728.84;;;0.45;87.17
18765;BME280;9511;54.242;12.448;2023-01-28T08:21:00;102734.50;;;0.49;87.23
18765;BME280;9511;54.242;12.448;2023-01-28T08:23:27;102742.13;;;0.57;87.85
18765;BME280;9511;54.242;12.448;2023-01-28T08:25:57;102742.72;;;0.63;87.79
18765;BME280;9511;54.242;12.448;2023-01-28T08:28:26;102743.94;;;0.66;88.19
18765;BME280;9511;54.242;12.448;2023-01-28T08:30:53;102743.47;;;0.70;88.56
18765;BME280;9511;54.242;12.448;2023-01-28T08:33:20;102732.56;;;0.74;88.71
18765;BME280;9511;54.242;12.448;2023-01-28T08:35:47;102737.03;;;0.75;88.86
18765;BME280;9511;54.242;12.448;2023-01-28T08:38:14;102748.03;;;0.82;88.76
18765;BME280;9511;54.242;12.448;2023-01-28T08:40:42;102736.63;;;0.90;88.78
18765;BME280;9511;54.242;12.448;2023-01-28T08:43:10;102746.00;;;0.88;88.95
18765;BME280;9511;54.242;12.448;2023-01-28T08:45:39;102753.63;;;0.95;88.85
18765;BME280;9511;54.242;12.448;2023-01-28T08:48:11;102748.41;;;0.95;88.68
18765;BME280;9511;54.242;12.448;2023-01-28T08:50:40;102763.38;;;1.06;88.28
18765;BME280;9511;54.242;12.448;2023-01-28T08:53:10;102764.53;;;1.18;88.27
18765;BME280;9511;54.242;12.448;2023-01-28T08:55:38;102753.34;;;1.19;87.96
18765;BME280;9511;54.242;12.448;2023-01-28T08:58:06;102752.88;;;1.23;88.09
18765;BME280;9511;54.242;12.448;2023-01-28T09:00:35;102755.34;;;1.22;87.33
18765;BME280;9511;54.242;12.448;2023-01-28T09:03:04;102761.31;;;1.21;87.45
18765;BME280;9511;54.242;12.448;2023-01-28T09:05:32;102765.44;;;1.27;87.35
18765;BME280;9511;54.242;12.448;2023-01-28T09:08:00;102755.00;;;1.27;87.16
18765;BME280;9511;54.242;12.448;2023-01-28T09:10:28;102756.75;;;1.37;87.08
18765;BME280;9511;54.242;12.448;2023-01-28T09:12:55;102767.69;;;1.33;86.96
18765;BME280;9511;54.242;12.448;2023-01-28T09:15:22;102766.00;;;1.33;87.11
18765;BME280;9511;54.242;12.448;2023-01-28T09:17:56;102777.28;;;1.43;87.05
18765;BME280;9511;54.242;12.448;2023-01-28T09:20:25;102784.34;;;1.44;86.80
18765;BME280;9511;54.242;12.448;2023-01-28T09:22:52;102776.91;;;1.29;86.60
18765;BME280;9511;54.242;12.448;2023-01-28T09:25:19;102786.41;;;1.29;86.66
18765;BME280;9511;54.242;12.448;2023-01-28T09:27:47;102784.13;;;1.32;86.95
18765;BME280;9511;54.242;12.448;2023-01-28T09:30:14;102794.69;;;1.33;87.16
18765;BME280;9511;54.242;12.448;2023-01-28T09:32:42;102789.03;;;1.29;87.16
18765;BME280;9511;54.242;12.448;2023-01-28T09:35:09;102782.75;;;1.27;87.27
18765;BME280;9511;54.242;12.448;2023-01-28T09:37:38;102784.47;;;1.18;87.52
18765;BME280;9511;54.242;12.448;2023-01-28T09:40:08;102787.88;;;1.17;87.21
18765;BME280;9511;54.242;12.448;2023-01-28T09:43:02;102790.06;;;1.31;87.08
18765;BME280;9511;54.242;12.448;2023-01-28T09:45:37;102796.03;;;1.39;86.98
18765;BME280;9511;54.242;12.448;2023-01-28T09:48:12;102792.06;;;1.33;86.59
18765;BME280;9511;54.242;12.448;2023-01-28T09:50:43;102793.09;;;1.17;85.36
18765;BME280;9511;54.242;12.448;2023-01-28T09:53:22;102794.19;;;1.10;84.57
18765;BME280;9511;54.242;12.448;2023-01-28T09:55:54;102796.47;;;1.16;84.40
18765;BME280;9511;54.242;12.448;2023-01-28T09:58:22;102780.50;;;1.21;84.06
18765;BME280;9511;54.242;12.448;2023-01-28T10:00:54;102778.03;;;1.23;83.88
18765;BME280;9511;54.242;12.448;2023-01-28T10:03:33;102782.31;;;1.22;83.80
18765;BME280;9511;54.242;12.448;2023-01-28T10:06:08;102782.22;;;1.40;83.68
18765;BME280;9511;54.242;12.448;2023-01-28T10:08:59;102783.72;;;1.46;83.12
18765;BME280;9511;54.242;12.448;2023-01-28T10:11:42;102780.75;;;1.52;82.88
18765;BME280;9511;54.242;12.448;2023-01-28T10:14:18;102764.06;;;1.50;82.49
18765;BME280;9511;54.242;12.448;2023-01-28T10:16:54;102764.19;;;1.51;82.27
18765;BME280;9511;54.242;12.448;2023-01-28T10:19:26;102765.78;;;1.68;82.31
18765;BME280;9511;54.242;12.448;2023-01-28T10:21:58;102754.25;;;1.66;81.88
18765;BME280;9511;54.242;12.448;2023-01-28T10:24:33;102749.91;;;1.75;81.61
18765;BME280;9511;54.242;12.448;2023-01-28T10:27:01;102743.13;;;1.77;81.15
18765;BME280;9511;54.242;12.448;2023-01-28T10:29:32;102751.66;;;1.85;81.04
18765;BME280;9511;54.242;12.448;2023-01-28T10:32:03;102738.34;;;1.63;80.62
18765;BME280;9511;54.242;12.448;2023-01-28T10:34:31;102743.78;;;1.75;80.82
18765;BME280;9511;54.242;12.448;2023-01-28T10:36:59;102742.94;;;1.84;80.54
18765;BME280;9511;54.242;12.448;2023-01-28T10:39:27;102730.38;;;1.80;80.17
18765;BME280;9511;54.242;12.448;2023-01-28T10:41:56;102726.50;;;1.67;79.55
18765;BME280;9511;54.242;12.448;2023-01-28T10:44:30;102721.19;;;1.75;79.66
18765;BME280;9511;54.242;12.448;2023-01-28T10:47:01;102705.78;;;1.68;79.33
18765;BME280;9511;54.242;12.448;2023-01-28T10:49:30;102703.56;;;1.92;78.98
18765;BME280;9511;54.242;12.448;2023-01-28T10:52:10;102706.22;;;1.83;78.36
18765;BME280;9511;54.242;12.448;2023-01-28T10:54:37;102707.03;;;2.01;78.20
18765;BME280;9511;54.242;12.448;2023-01-28T10:57:09;102705.59;;;2.04;77.58
18765;BME280;9511;54.242;12.448;2023-01-28T10:59:38;102704.97;;;1.88;77.29
18765;BME280;9511;54.242;12.448;2023-01-28T11:02:23;102693.84;;;1.80;77.36
18765;BME280;9511;54.242;12.448;2023-01-28T11:05:00;102676.81;;;1.94;76.96
18765;BME280;9511;54.242;12.448;2023-01-28T11:07:28;102673.53;;;1.86;77.11
18765;BME280;9511;54.242;12.448;2023-01-28T11:09:55;102662.34;;;1.98;76.73
18765;BME280;9511;54.242;12.448;2023-01-28T11:12:26;102663.56;;;1.82;76.64
18765;BME280;9511;54.242;12.448;2023-01-28T11:14:55;102667.09;;;2.12;76.98
18765;BME280;9511;54.242;12.448;2023-01-28T11:17:24;102651.06;;;2.18;76.43
18765;BME280;9511;54.242;12.448;2023-01-28T11:19:52;102645.78;;;2.26;75.90
18765;BME280;9511;54.242;12.448;2023-01-28T11:22:32;102645.31;;;2.11;76.03
18765;BME280;9511;54.242;12.448;2023-01-28T11:25:02;102647.28;;;2.14;75.86
18765;BME280;9511;54.242;12.448;2023-01-28T11:27:32;102636.06;;;1.86;76.44
18765;BME280;9511;54.242;12.448;2023-01-28T11:30:00;102613.44;;;1.95;76.34
18765;BME280;9511;54.242;12.448;2023-01-28T11:32:29;102617.13;;;1.78;76.70
18765;BME280;9511;54.242;12.448;2023-01-28T11:34:57;102619.50;;;1.85;76.14
18765;BME280;9511;54.242;12.448;2023-01-28T11:37:26;102620.50;;;1.77;76.38
18765;BME280;9511;54.242;12.448;2023-01-28T11:40:01;102602.97;;;1.66;76.63
18765;BME280;9511;54.242;12.448;2023-01-28T11:42:29;102597.72;;;1.56;76.67
18765;BME280;9511;54.242;12.448;2023-01-28T11:44:57;102598.13;;;1.42;76.91
18765;BME280;9511;54.242;12.448;2023-01-28T11:47:37;102587.00;;;1.53;76.90
18765;BME280;9511;54.242;12.448;2023-01-28T11:50:21;102589.91;;;1.56;76.89
18765;BME280;9511;54.242;12.448;2023-01-28T11:52:59;102571.88;;;1.88;76.96
18765;BME280;9511;54.242;12.448;2023-01-28T11:55:40;102576.81;;;2.14;76.47
18765;BME280;9511;54.242;12.448;2023-01-28T11:58:20;102581.00;;;2.22;76.26
18765;BME280;9511;54.242;12.448;2023-01-28T12:00:59;102579.50;;;2.05;75.89
18765;BME280;9511;54.242;12.448;2023-01-28T12:03:41;102597.56;;;2.23;75.59
18765;BME280;9511;54.242;12.448;2023-01-28T12:06:25;102604.66;;;2.24;75.14
18765;BME280;9511;54.242;12.448;2023-01-28T12:09:00;102587.78;;;2.20;75.39
18765;BME280;9511;54.242;12.448;2023-01-28T12:11:37;102592.91;;;2.39;75.51
18765;BME280;9511;54.242;12.448;2023-01-28T12:14:31;102589.16;;;2.56;74.66
18765;BME280;9511;54.242;12.448;2023-01-28T12:17:10;102571.13;;;2.38;74.51
18765;BME280;9511;54.242;12.448;2023-01-28T12:19:52;102583.16;;;2.67;74.19
18765;BME280;9511;54.242;12.448;2023-01-28T12:22:33;102557.28;;;2.50;73.58
18765;BME280;9511;54.242;12.448;2023-01-28T12:25:14;102559.38;;;2.74;73.99
18765;BME280;9511;54.242;12.448;2023-01-28T12:27:51;102566.19;;;2.82;73.50
18765;BME280;9511;54.242;12.448;2023-01-28T12:30:35;102561.09;;;3.04;73.01
18765;BME280;9511;54.242;12.448;2023-01-28T12:33:28;102553.91;;;2.81;73.23
18765;BME280;9511;54.242;12.448;2023-01-28T12:36:02;102559.78;;;2.48;73.28
18765;BME280;9511;54.242;12.448;2023-01-28T12:38:41;102566.16;;;2.42;73.87
18765;BME280;9511;54.242;12.448;2023-01-28T12:41:15;102559.34;;;2.33;73.46
18765;BME280;9511;54.242;12.448;2023-01-28T12:43:55;102552.19;;;2.31;73.23
18765;BME280;9511;54.242;12.448;2023-01-28T12:46:40;102541.72;;;2.31;73.27
18765;BME280;9511;54.242;12.448;2023-01-28T12:49:13;102544.81;;;2.17;73.36
18765;BME280;9511;54.242;12.448;2023-01-28T12:51:50;102541.44;;;2.07;73.35
18765;BME280;9511;54.242;12.448;2023-01-28T12:54:25;102545.19;;;2.11;73.65
18765;BME280;9511;54.242;12.448;2023-01-28T12:56:55;102539.72;;;2.08;73.66
18765;BME280;9511;54.242;12.448;2023-01-28T12:59:28;102544.97;;;2.08;73.58
18765;BME280;9511;54.242;12.448;2023-01-28T13:02:20;102548.97;;;2.04;73.72
18765;BME280;9511;54.242;12.448;2023-01-28T13:04:57;102539.59;;;2.17;73.67
18765;BME280;9511;54.242;12.448;2023-01-28T13:07:33;102542.09;;;2.15;73.84
18765;BME280;9511;54.242;12.448;2023-01-28T13:10:04;102541.81;;;2.12;73.96
18765;BME280;9511;54.242;12.448;2023-01-28T13:12:33;102549.63;;;2.12;73.91
18765;BME280;9511;54.242;12.448;2023-01-28T13:15:01;102548.59;;;2.10;73.89
18765;BME280;9511;54.242;12.448;2023-01-28T13:17:30;102550.03;;;2.17;74.24
18765;BME280;9511;54.242;12.448;2023-01-28T13:19:59;102541.81;;;2.12;74.31
18765;BME280;9511;54.242;12.448;2023-01-28T13:22:29;102538.31;;;2.22;74.46
18765;BME280;9511;54.242;12.448;2023-01-28T13:25:11;102533.75;;;2.19;74.85
18765;BME280;9511;54.242;12.448;2023-01-28T13:27:39;102524.22;;;2.20;74.99
18765;BME280;9511;54.242;12.448;2023-01-28T13:30:24;102536.09;;;2.26;75.68
18765;BME280;9511;54.242;12.448;2023-01-28T13:32:58;102547.59;;;2.28;75.67
18765;BME280;9511;54.242;12.448;2023-01-28T13:35:32;102548.38;;;2.27;75.49
18765;BME280;9511;54.242;12.448;2023-01-28T13:38:07;102548.53;;;2.39;75.70
18765;BME280;9511;54.242;12.448;2023-01-28T13:40:35;102556.78;;;2.54;75.34
18765;BME280;9511;54.242;12.448;2023-01-28T13:43:22;102560.44;;;2.66;75.05
18765;BME280;9511;54.242;12.448;2023-01-28T13:45:54;102549.72;;;3.56;73.47
18765;BME280;9511;54.242;12.448;2023-01-28T13:48:28;102545.81;;;4.27;70.74
18765;BME280;9511;54.242;12.448;2023-01-28T13:50:59;102546.47;;;5.03;67.65
18765;BME280;9511;54.242;12.448;2023-01-28T13:53:36;102539.75;;;4.95;64.78
18765;BME280;9511;54.242;12.448;2023-01-28T13:56:16;102551.88;;;4.60;63.89
18765;BME280;9511;54.242;12.448;2023-01-28T13:59:10;102551.09;;;4.39;65.03
18765;BME280;9511;54.242;12.448;2023-01-28T14:08:32;102568.13;;;2.44;69.60
18765;BME280;9511;54.242;12.448;2023-01-28T14:11:14;102566.25;;;2.23;70.35
18765;BME280;9511;54.242;12.448;2023-01-28T14:14:02;102563.25;;;2.18;71.24
18765;BME280;9511;54.242;12.448;2023-01-28T14:16:43;102557.31;;;2.00;72.29
18765;BME280;9511;54.242;12.448;2023-01-28T14:19:20;102546.72;;;1.89;72.76
18765;BME280;9511;54.242;12.448;2023-01-28T14:21:52;102533.66;;;1.78;73.48
18765;BME280;9511;54.242;12.448;2023-01-28T14:24:20;102520.56;;;1.68;73.87
18765;BME280;9511;54.242;12.448;2023-01-28T14:26:54;102529.44;;;1.70;74.60
18765;BME280;9511;54.242;12.448;2023-01-28T14:29:32;102540.41;;;1.76;74.92
18765;BME280;9511;54.242;12.448;2023-01-28T14:32:07;102546.91;;;1.71;75.00
18765;BME280;9511;54.242;12.448;2023-01-28T14:34:38;102552.13;;;1.71;75.34
18765;BME280;9511;54.242;12.448;2023-01-28T14:37:07;102543.13;;;1.68;75.35
18765;BME280;9511;54.242;12.448;2023-01-28T14:39:41;102545.75;;;1.49;75.58
18765;BME280;9511;54.242;12.448;2023-01-28T14:42:13;102549.69;;;1.54;75.37
18765;BME280;9511;54.242;12.448;2023-01-28T14:44:43;102555.44;;;1.50;75.39
18765;BME280;9511;54.242;12.448;2023-01-28T14:47:29;102539.72;;;1.40;75.68
18765;BME280;9511;54.242;12.448;2023-01-28T14:50:10;102550.66;;;1.36;76.01
18765;BME280;9511;54.242;12.448;2023-01-28T14:52:50;102550.41;;;1.43;76.36
18765;BME280;9511;54.242;12.448;2023-01-28T14:55:31;102550.28;;;1.41;76.64
18765;BME280;9511;54.242;12.448;2023-01-28T14:58:02;102568.59;;;1.51;76.98
18765;BME280;9511;54.242;12.448;2023-01-28T15:00:32;102561.16;;;1.46;77.02
18765;BME280;9511;54.242;12.448;2023-01-28T15:03:07;102548.38;;;1.49;77.03
18765;BME280;9511;54.242;12.448;2023-01-28T15:05:35;102553.03;;;1.43;77.08
18765;BME280;9511;54.242;12.448;2023-01-28T15:08:02;102552.41;;;1.45;77.73
18765;BME280;9511;54.242;12.448;2023-01-28T15:10:35;102539.09;;;1.42;77.56
18765;BME280;9511;54.242;12.448;2023-01-28T15:13:06;102536.34;;;1.41;77.41
18765;BME280;9511;54.242;12.448;2023-01-28T15:15:35;102539.97;;;1.32;77.98
18765;BME280;9511;54.242;12.448;2023-01-28T15:18:09;102533.84;;;1.32;78.01
18765;BME280;9511;54.242;12.448;2023-01-28T15:20:43;102539.06;;;1.32;78.05
18765;BME280;9511;54.242;12.448;2023-01-28T15:23:14;102533.63;;;1.20;77.97
18765;BME280;9511;54.242;12.448;2023-01-28T15:25:43;102537.56;;;1.25;78.34
18765;BME280;9511;54.242;12.448;2023-01-28T15:28:16;102543.69;;;1.26;78.34
18765;BME280;9511;54.242;12.448;2023-01-28T15:30:46;102538.63;;;1.27;78.36
18765;BME280;9511;54.242;12.448;2023-01-28T15:33:15;102537.56;;;1.25;78.40
18765;BME280;9511;54.242;12.448;2023-01-28T15:35:46;102524.03;;;1.29;78.81
18765;BME280;9511;54.242;12.448;2023-01-28T15:38:13;102536.81;;;1.26;78.50
18765;BME280;9511;54.242;12.448;2023-01-28T15:40:46;102527.78;;;1.23;78.43
18765;BME280;9511;54.242;12.448;2023-01-28T15:43:19;102525.03;;;1.21;78.46
18765;BME280;9511;54.242;12.448;2023-01-28T15:45:47;102514.81;;;1.14;78.67
18765;BME280;9511;54.242;12.448;2023-01-28T15:48:15;102510.38;;;1.13;78.71
18765;BME280;9511;54.242;12.448;2023-01-28T15:50:43;102529.41;;;1.12;79.07
18765;BME280;9511;54.242;12.448;2023-01-28T15:53:12;102516.38;;;1.12;79.18
18765;BME280;9511;54.242;12.448;2023-01-28T15:55:43;102520.25;;;1.07;79.39
18765;BME280;9511;54.242;12.448;2023-01-28T15:58:19;102519.22;;;1.05;79.73
18765;BME280;9511;54.242;12.448;2023-01-28T16:00:47;102523.09;;;1.00;79.91
18765;BME280;9511;54.242;12.448;2023-01-28T16:03:20;102521.25;;;0.99;80.19
18765;BME280;9511;54.242;12.448;2023-01-28T16:05:54;102520.19;;;0.97;80.40
18765;BME280;9511;54.242;12.448;2023-01-28T16:08:26;102517.19;;;0.92;80.72
18765;BME280;9511;54.242;12.448;2023-01-28T16:10:56;102524.91;;;0.82;81.09
18765;BME280;9511;54.242;12.448;2023-01-28T16:13:24;102532.09;;;0.85;81.07
18765;BME280;9511;54.242;12.448;2023-01-28T16:15:54;102535.75;;;0.87;81.49
18765;BME280;9511;54.242;12.448;2023-01-28T16:18:29;102532.38;;;0.88;81.59
18765;BME280;9511;54.242;12.448;2023-01-28T16:20:58;102532.38;;;0.88;81.67
18765;BME280;9511;54.242;12.448;2023-01-28T16:23:26;102532.66;;;0.91;82.08
18765;BME280;9511;54.242;12.448;2023-01-28T16:26:00;102529.00;;;0.89;82.00
18765;BME280;9511;54.242;12.448;2023-01-28T16:28:28;102541.53;;;0.93;82.23
18765;BME280;9511;54.242;12.448;2023-01-28T16:30:57;102533.72;;;0.93;82.48
18765;BME280;9511;54.242;12.448;2023-01-28T16:33:24;102525.59;;;0.90;82.94
18765;BME280;9511;54.242;12.448;2023-01-28T16:35:52;102510.28;;;0.93;82.98
18765;BME280;9511;54.242;12.448;2023-01-28T16:38:20;102498.78;;;0.91;82.69
18765;BME280;9511;54.242;12.448;2023-01-28T16:40:48;102497.72;;;0.89;83.31
18765;BME280;9511;54.242;12.448;2023-01-28T16:43:17;102484.72;;;0.89;83.73
18765;BME280;9511;54.242;12.448;2023-01-28T16:45:44;102495.00;;;0.87;83.72
18765;BME280;9511;54.242;12.448;2023-01-28T16:48:12;102499.28;;;0.87;83.98
18765;BME280;9511;54.242;12.448;2023-01-28T16:50:41;102499.78;;;0.83;84.48
18765;BME280;9511;54.242;12.448;2023-01-28T16:53:16;102505.69;;;0.90;84.49
18765;BME280;9511;54.242;12.448;2023-01-28T16:55:44;102499.28;;;0.87;84.65
18765;BME280;9511;54.242;12.448;2023-01-28T16:58:12;102502.66;;;0.86;85.04
18765;BME280;9511;54.242;12.448;2023-01-28T17:00:41;102511.59;;;0.79;85.32
18765;BME280;9511;54.242;12.448;2023-01-28T17:03:08;102506.59;;;0.72;85.51
18765;BME280;9511;54.242;12.448;2023-01-28T17:05:37;102513.50;;;0.71;86.24
18765;BME280;9511;54.242;12.448;2023-01-28T17:08:05;102503.44;;;0.66;86.78
18765;BME280;9511;54.242;12.448;2023-01-28T17:10:32;102502.53;;;0.65;86.88
18765;BME280;9511;54.242;12.448;2023-01-28T17:12:59;102502.22;;;0.62;86.96
18765;BME280;9511;54.242;12.448;2023-01-28T17:15:28;102499.47;;;0.61;87.09
18765;BME280;9511;54.242;12.448;2023-01-28T17:17:58;102512.38;;;0.59;87.28
18765;BME280;9511;54.242;12.448;2023-01-28T17:20:26;102499.81;;;0.55;87.47
18765;BME280;9511;54.242;12.448;2023-01-28T17:22:53;102491.94;;;0.45;88.07
18765;BME280;9511;54.242;12.448;2023-01-28T17:25:20;102491.94;;;0.45;88.77
18765;BME280;9511;54.242;12.448;2023-01-28T17:27:47;102504.69;;;0.42;89.06
18765;BME280;9511;54.242;12.448;2023-01-28T17:30:17;102513.53;;;0.44;89.35
18765;BME280;9511;54.242;12.448;2023-01-28T17:32:44;102525.63;;;0.43;90.11
18765;BME280;9511;54.242;12.448;2023-01-28T17:35:13;102509.88;;;0.42;90.31